createdAt,value
2022-10-07T00:01:55.973Z,8.66
2022-10-07T00:04:22.323Z,8.67
2022-10-07T00:06:48.853Z,8.65
2022-10-07T00:09:15.187Z,8.66
2022-10-07T00:11:41.826Z,8.67
2022-10-07T00:14:08.589Z,8.70
2022-10-07T00:16:37.964Z,8.70
2022-10-07T00:19:07.538Z,8.72
2022-10-07T00:21:35.356Z,8.71
2022-10-07T00:24:02.217Z,8.73
2022-10-07T00:26:30.908Z,8.76
2022-10-07T00:28:57.558Z,8.77
2022-10-07T00:31:36.470Z,8.78
2022-10-07T00:34:04.005Z,8.80
2022-10-07T00:36:35.665Z,8.81
2022-10-07T00:39:07.970Z,8.80
2022-10-07T00:41:50.095Z,8.82
2022-10-07T00:44:31.662Z,8.81
2022-10-07T00:47:05.981Z,8.81
2022-10-07T00:49:41.660Z,8.81
2022-10-07T00:52:08.453Z,8.80
2022-10-07T00:54:36.238Z,8.81
2022-10-07T00:57:03.433Z,8.82
2022-10-07T00:59:29.804Z,8.83
2022-10-07T01:01:56.145Z,8.82
2022-10-07T01:04:22.504Z,8.83
2022-10-07T01:06:48.927Z,8.82
2022-10-07T01:09:15.637Z,8.80
2022-10-07T01:12:01.304Z,8.78
2022-10-07T01:15:03.857Z,8.77
2022-10-07T01:17:46.224Z,8.74
2022-10-07T01:20:25.638Z,8.74
2022-10-07T01:22:56.608Z,8.75
2022-10-07T01:25:26.339Z,8.71
2022-10-07T01:28:00.925Z,8.68
2022-10-07T01:30:31.650Z,8.68
2022-10-07T01:33:04.340Z,8.68
2022-10-07T01:35:35.197Z,8.66
2022-10-07T01:38:06.722Z,8.65
2022-10-07T01:40:41.942Z,8.65
2022-10-07T01:43:08.669Z,8.64
2022-10-07T01:45:39.693Z,8.63
2022-10-07T01:48:06.177Z,8.63
2022-10-07T01:50:33.458Z,8.61
2022-10-07T01:53:12.581Z,8.58
2022-10-07T01:55:50.296Z,8.59
2022-10-07T01:58:41.129Z,8.60
2022-10-07T02:01:27.132Z,8.60
2022-10-07T02:04:19.398Z,8.61
2022-10-07T02:06:59.750Z,8.62
2022-10-07T02:09:36.496Z,8.63
2022-10-07T02:13:01.417Z,8.61
2022-10-07T02:15:36.271Z,8.61
2022-10-07T02:18:08.073Z,8.62
2022-10-07T02:20:38.039Z,8.63
2022-10-07T02:23:08.497Z,8.63
2022-10-07T02:25:40.823Z,8.62
2022-10-07T02:28:10.514Z,8.62
2022-10-07T02:30:37.803Z,8.60
2022-10-07T02:33:07.654Z,8.60
2022-10-07T02:35:45.312Z,8.57
2022-10-07T02:38:14.441Z,8.55
2022-10-07T02:40:59.748Z,8.55
2022-10-07T02:43:50.580Z,8.54
2022-10-07T02:46:24.975Z,8.55
2022-10-07T02:48:58.738Z,8.55
2022-10-07T02:51:34.962Z,8.54
2022-10-07T02:54:03.398Z,8.53
2022-10-07T02:56:33.705Z,8.53
2022-10-07T02:59:06.694Z,8.49
2022-10-07T03:01:38.632Z,8.50
2022-10-07T03:04:05.934Z,8.50
2022-10-07T03:06:34.949Z,8.49
2022-10-07T03:09:01.676Z,8.49
2022-10-07T03:11:28.546Z,8.50
2022-10-07T03:13:54.971Z,8.49
2022-10-07T03:16:21.560Z,8.49
2022-10-07T03:18:47.944Z,8.47
2022-10-07T03:21:14.402Z,8.47
2022-10-07T03:23:40.735Z,8.46
2022-10-07T03:26:07.048Z,8.46
2022-10-07T03:28:37.211Z,8.45
2022-10-07T03:31:05.944Z,8.44
2022-10-07T03:33:32.462Z,8.44
2022-10-07T03:35:58.773Z,8.45
2022-10-07T03:38:25.104Z,8.46
2022-10-07T03:40:51.423Z,8.45
2022-10-07T03:43:18.278Z,8.46
2022-10-07T03:45:51.158Z,8.46
2022-10-07T03:48:18.145Z,8.45
2022-10-07T03:50:56.413Z,8.45
2022-10-07T03:53:23.573Z,8.43
2022-10-07T03:55:50.352Z,8.44
2022-10-07T03:58:16.769Z,8.43
2022-10-07T04:00:43.178Z,8.43
2022-10-07T04:03:10.031Z,8.43
2022-10-07T04:05:36.991Z,8.43
2022-10-07T04:08:07.251Z,8.44
2022-10-07T04:10:34.388Z,8.43
2022-10-07T04:13:01.009Z,8.43
2022-10-07T04:15:27.401Z,8.41
2022-10-07T04:17:58.459Z,8.40
2022-10-07T04:20:25.983Z,8.38
2022-10-07T04:22:52.366Z,8.38
2022-10-07T04:25:33.913Z,8.36
2022-10-07T04:28:08.466Z,8.34
2022-10-07T04:30:39.785Z,8.33
2022-10-07T04:33:06.301Z,8.33
2022-10-07T04:35:36.729Z,8.33
2022-10-07T04:38:03.093Z,8.34
2022-10-07T04:40:30.948Z,8.34
2022-10-07T04:43:15.908Z,8.33
2022-10-07T04:45:42.255Z,8.33
2022-10-07T04:48:08.714Z,8.31
2022-10-07T04:50:38.501Z,8.30
2022-10-07T04:53:10.843Z,8.28
2022-10-07T04:55:42.661Z,8.25
2022-10-07T04:58:09.881Z,8.23
2022-10-07T05:00:45.202Z,8.23
2022-10-07T05:03:13.872Z,8.23
2022-10-07T05:05:42.278Z,8.22
2022-10-07T05:08:09.010Z,8.22
2022-10-07T05:10:37.169Z,8.24
2022-10-07T05:13:04.955Z,8.23
2022-10-07T05:15:31.701Z,8.21
2022-10-07T05:17:58.252Z,8.20
2022-10-07T05:20:24.617Z,8.21
2022-10-07T05:22:50.965Z,8.21
2022-10-07T05:25:17.352Z,8.22
2022-10-07T05:27:44.169Z,8.20
2022-10-07T05:30:11.487Z,8.22
2022-10-07T05:32:37.817Z,8.22
2022-10-07T05:35:04.446Z,8.23
2022-10-07T05:37:32.280Z,8.23
2022-10-07T05:39:58.653Z,8.25
2022-10-07T05:42:24.979Z,8.27
2022-10-07T05:44:51.370Z,8.29
2022-10-07T05:47:18.833Z,8.31
2022-10-07T05:49:45.181Z,8.33
2022-10-07T05:52:11.569Z,8.36
2022-10-07T05:54:38.230Z,8.40
2022-10-07T05:57:04.757Z,8.43
2022-10-07T05:59:31.326Z,8.45
2022-10-07T06:02:00.121Z,8.49
2022-10-07T06:04:27.535Z,8.53
2022-10-07T06:06:53.909Z,8.57
2022-10-07T06:09:39.609Z,8.62
2022-10-07T06:12:24.397Z,8.67
2022-10-07T06:14:51.231Z,8.75
2022-10-07T06:17:17.588Z,8.82
2022-10-07T06:19:43.903Z,8.91
2022-10-07T06:22:11.085Z,8.95
2022-10-07T06:24:37.489Z,9.02
2022-10-07T06:27:03.975Z,9.08
2022-10-07T06:29:30.350Z,9.10
2022-10-07T06:31:56.681Z,9.20
2022-10-07T06:34:23.066Z,9.27
2022-10-07T06:36:49.429Z,9.33
2022-10-07T06:39:17.597Z,9.42
2022-10-07T06:41:44.268Z,9.49
2022-10-07T06:44:10.713Z,9.56
2022-10-07T06:46:37.037Z,9.63
2022-10-07T06:49:04.771Z,9.68
2022-10-07T06:51:31.182Z,9.74
2022-10-07T06:54:00.200Z,9.78
2022-10-07T06:56:26.553Z,9.80
2022-10-07T06:58:52.979Z,9.80
2022-10-07T07:01:19.364Z,9.82
2022-10-07T07:03:45.898Z,9.84
2022-10-07T07:06:12.349Z,9.87
2022-10-07T07:08:41.268Z,9.93
2022-10-07T07:11:29.400Z,9.99
2022-10-07T07:13:56.507Z,10.09
2022-10-07T07:16:27.058Z,10.16
2022-10-07T07:18:56.144Z,10.24
2022-10-07T07:21:23.184Z,10.34
2022-10-07T07:23:53.912Z,10.46
2022-10-07T07:26:20.786Z,10.55
2022-10-07T07:28:54.990Z,10.59
2022-10-07T07:31:21.433Z,10.62
2022-10-07T07:33:52.392Z,10.67
2022-10-07T07:36:22.594Z,10.77
2022-10-07T07:39:01.385Z,10.87
2022-10-07T07:41:31.381Z,10.95
2022-10-07T07:43:59.854Z,11.03
2022-10-07T07:46:31.963Z,11.12
2022-10-07T07:48:58.467Z,11.22
2022-10-07T07:51:25.070Z,11.30
2022-10-07T07:53:52.275Z,11.39
2022-10-07T07:56:20.149Z,11.47
2022-10-07T07:58:46.880Z,11.57
2022-10-07T08:01:16.026Z,11.66
2022-10-07T08:03:44.465Z,11.76
2022-10-07T08:06:12.110Z,11.85
2022-10-07T08:08:40.046Z,11.93
2022-10-07T08:11:08.070Z,12.00
2022-10-07T08:13:36.394Z,12.09
2022-10-07T08:16:04.939Z,12.19
2022-10-07T08:18:32.198Z,12.27
2022-10-07T08:21:00.285Z,12.37
2022-10-07T08:23:29.292Z,12.51
2022-10-07T08:25:59.698Z,12.70
2022-10-07T08:28:28.259Z,12.87
2022-10-07T08:31:01.105Z,13.06
2022-10-07T08:33:27.512Z,13.19
2022-10-07T08:36:01.124Z,13.12
2022-10-07T08:38:32.981Z,13.02
2022-10-07T08:41:14.113Z,13.06
2022-10-07T08:43:46.442Z,13.17
2022-10-07T08:46:16.709Z,13.28
2022-10-07T08:48:52.124Z,13.39
2022-10-07T08:51:24.551Z,13.53
2022-10-07T08:53:55.643Z,13.65
2022-10-07T08:56:26.785Z,13.72
2022-10-07T08:59:21.682Z,13.66
2022-10-07T09:02:14.269Z,13.77
2022-10-07T09:04:46.517Z,13.88
2022-10-07T09:07:25.659Z,13.98
2022-10-07T09:10:06.740Z,13.92
2022-10-07T09:12:41.961Z,13.85
2022-10-07T09:15:19.610Z,13.72
2022-10-07T09:17:59.086Z,13.65
2022-10-07T09:20:42.056Z,13.69
2022-10-07T09:23:15.270Z,13.71
2022-10-07T09:25:43.267Z,13.84
2022-10-07T09:28:16.062Z,14.07
2022-10-07T09:30:42.945Z,14.31
2022-10-07T09:33:16.267Z,14.43
2022-10-07T09:35:57.261Z,14.55
2022-10-07T09:38:39.621Z,14.63
2022-10-07T09:41:30.394Z,14.76
2022-10-07T09:44:19.446Z,14.85
2022-10-07T09:46:59.369Z,15.05
2022-10-07T09:49:28.775Z,15.16
2022-10-07T09:52:02.212Z,15.25
2022-10-07T09:54:30.883Z,15.25
2022-10-07T09:57:00.073Z,15.26
2022-10-07T09:59:27.883Z,15.31
2022-10-07T10:01:57.833Z,15.41
2022-10-07T10:04:31.600Z,15.46
2022-10-07T10:07:06.313Z,15.43
2022-10-07T10:09:34.918Z,15.60
2022-10-07T10:12:12.845Z,15.76
2022-10-07T10:14:49.999Z,15.89
2022-10-07T10:17:27.036Z,16.04
2022-10-07T10:19:53.925Z,16.22
2022-10-07T10:22:26.814Z,16.35
2022-10-07T10:25:13.425Z,16.19
2022-10-07T10:27:54.213Z,15.98
2022-10-07T10:30:22.692Z,16.10
2022-10-07T10:33:07.566Z,16.31
2022-10-07T10:35:39.414Z,16.50
2022-10-07T10:38:33.044Z,16.64
2022-10-07T10:41:19.911Z,16.80
2022-10-07T10:44:03.474Z,16.92
2022-10-07T10:46:59.988Z,16.90
2022-10-07T10:49:54.747Z,16.96
2022-10-07T10:52:35.345Z,17.03
2022-10-07T10:55:17.729Z,17.22
2022-10-07T10:57:56.843Z,17.36
2022-10-07T11:00:48.846Z,17.36
2022-10-07T11:03:34.074Z,17.32
2022-10-07T11:06:06.335Z,17.39
2022-10-07T11:08:38.431Z,17.39
2022-10-07T11:11:09.170Z,17.50
2022-10-07T11:13:56.728Z,17.73
2022-10-07T11:16:28.028Z,17.63
2022-10-07T11:19:16.357Z,17.64
2022-10-07T11:21:48.477Z,17.80
2022-10-07T11:24:28.904Z,17.99
2022-10-07T11:27:19.441Z,18.20
2022-10-07T11:29:55.069Z,18.34
2022-10-07T11:32:49.301Z,18.30
2022-10-07T11:35:38.361Z,18.17
2022-10-07T11:38:12.181Z,18.15
2022-10-07T11:40:52.017Z,18.24
2022-10-07T11:43:30.533Z,18.21
2022-10-07T11:46:07.894Z,18.23
2022-10-07T11:48:43.803Z,18.21
2022-10-07T11:51:21.520Z,18.18
2022-10-07T11:53:48.502Z,18.00
2022-10-07T11:56:16.877Z,17.94
2022-10-07T11:58:44.534Z,18.03
2022-10-07T12:01:26.166Z,18.21
2022-10-07T12:03:54.614Z,18.43
2022-10-07T12:06:20.963Z,18.59
2022-10-07T12:08:47.539Z,18.63
2022-10-07T12:11:17.214Z,18.86
2022-10-07T12:13:47.621Z,18.86
2022-10-07T12:16:32.213Z,18.71
2022-10-07T12:19:07.588Z,18.88
2022-10-07T12:21:57.874Z,19.13
2022-10-07T12:24:24.219Z,19.01
2022-10-07T12:26:51.435Z,18.97
2022-10-07T12:29:59.644Z,19.05
2022-10-07T12:32:48.169Z,18.86
2022-10-07T12:35:29.972Z,18.88
2022-10-07T12:38:23.474Z,18.90
2022-10-07T12:41:14.762Z,18.92
2022-10-07T12:43:57.122Z,18.87
2022-10-07T12:46:26.456Z,18.71
2022-10-07T12:49:30.113Z,18.56
2022-10-07T12:52:00.514Z,18.45
2022-10-07T12:54:44.796Z,18.34
2022-10-07T12:57:16.819Z,18.27
2022-10-07T13:00:02.925Z,18.24
2022-10-07T13:02:57.148Z,18.20
2022-10-07T13:06:01.409Z,18.28
2022-10-07T13:08:42.067Z,18.42
2022-10-07T13:11:47.522Z,18.37
2022-10-07T13:14:36.233Z,18.68
2022-10-07T13:17:16.485Z,18.63
2022-10-07T13:19:56.752Z,18.51
2022-10-07T13:22:24.237Z,18.53
2022-10-07T13:24:55.230Z,18.63
2022-10-07T13:27:32.629Z,18.61
2022-10-07T13:30:01.663Z,18.62
2022-10-07T13:32:34.256Z,18.66
2022-10-07T13:35:29.285Z,18.68
2022-10-07T13:37:55.767Z,18.58
2022-10-07T13:40:34.007Z,18.40
2022-10-07T13:43:02.833Z,18.38
2022-10-07T13:45:32.157Z,18.35
2022-10-07T13:47:58.849Z,18.39
2022-10-07T13:50:27.728Z,18.23
2022-10-07T13:52:56.270Z,18.22
2022-10-07T13:55:25.684Z,18.27
2022-10-07T13:57:54.733Z,18.25
2022-10-07T14:00:21.153Z,18.18
2022-10-07T14:02:49.585Z,18.17
2022-10-07T14:05:29.837Z,18.18
2022-10-07T14:08:10.729Z,18.21
2022-10-07T14:11:05.884Z,18.29
2022-10-07T14:13:34.637Z,18.39
2022-10-07T14:16:01.241Z,18.43
2022-10-07T14:18:31.874Z,18.43
2022-10-07T14:21:16.938Z,18.38
2022-10-07T14:23:46.840Z,18.27
2022-10-07T14:26:17.655Z,18.24
2022-10-07T14:28:44.931Z,18.21
2022-10-07T14:31:37.671Z,18.15
2022-10-07T14:34:32.196Z,18.04
2022-10-07T14:37:10.316Z,18.06
2022-10-07T14:39:49.945Z,18.04
2022-10-07T14:42:35.853Z,18.00
2022-10-07T14:45:04.929Z,18.03
2022-10-07T14:47:31.854Z,17.90
2022-10-07T14:50:01.270Z,17.90
2022-10-07T14:52:31.875Z,17.89
2022-10-07T14:54:59.542Z,17.84
2022-10-07T14:57:26.104Z,17.75
2022-10-07T14:59:53.281Z,17.73
2022-10-07T15:02:20.305Z,17.68
2022-10-07T15:04:47.326Z,17.67
2022-10-07T15:07:16.408Z,17.68
2022-10-07T15:09:44.799Z,17.71
2022-10-07T15:12:12.860Z,17.73
2022-10-07T15:14:39.228Z,17.75
2022-10-07T15:17:06.034Z,17.77
2022-10-07T15:19:35.820Z,17.78
2022-10-07T15:22:02.164Z,17.80
2022-10-07T15:24:30.126Z,17.73
2022-10-07T15:26:56.478Z,17.68
2022-10-07T15:29:23.668Z,17.65
2022-10-07T15:31:52.134Z,17.57
2022-10-07T15:34:18.556Z,17.57
2022-10-07T15:36:48.546Z,17.45
2022-10-07T15:39:15.373Z,17.39
2022-10-07T15:41:43.166Z,17.38
2022-10-07T15:44:16.102Z,17.36
2022-10-07T15:46:44.011Z,17.31
2022-10-07T15:49:10.748Z,17.24
2022-10-07T15:51:37.394Z,17.18
2022-10-07T15:54:05.312Z,17.12
2022-10-07T15:56:32.405Z,17.04
2022-10-07T15:59:00.475Z,16.99
2022-10-07T16:01:28.742Z,16.98
2022-10-07T16:03:55.783Z,16.95
2022-10-07T16:06:27.515Z,16.90
2022-10-07T16:08:56.318Z,16.83
2022-10-07T16:11:22.779Z,16.78
2022-10-07T16:13:49.834Z,16.75
2022-10-07T16:16:22.726Z,16.69
2022-10-07T16:18:51.564Z,16.65
2022-10-07T16:21:22.619Z,16.63
2022-10-07T16:23:56.184Z,16.62
2022-10-07T16:26:26.317Z,16.53
2022-10-07T16:29:12.940Z,16.43
2022-10-07T16:31:41.850Z,16.37
2022-10-07T16:34:10.800Z,16.33
2022-10-07T16:36:40.996Z,16.26
2022-10-07T16:39:10.005Z,16.17
2022-10-07T16:41:37.577Z,16.08
2022-10-07T16:44:04.986Z,16.01
2022-10-07T16:46:32.213Z,15.92
2022-10-07T16:49:00.227Z,15.86
2022-10-07T16:51:30.570Z,15.79
2022-10-07T16:54:01.628Z,15.70
2022-10-07T16:56:30.032Z,15.64
2022-10-07T16:58:58.372Z,15.57
2022-10-07T17:01:26.885Z,15.49
2022-10-07T17:03:54.637Z,15.43
2022-10-07T17:06:22.676Z,15.36
2022-10-07T17:08:49.415Z,15.30
2022-10-07T17:11:31.223Z,15.23
2022-10-07T17:14:06.952Z,15.18
2022-10-07T17:16:42.781Z,15.10
2022-10-07T17:19:12.776Z,15.04
2022-10-07T17:21:41.743Z,14.97
2022-10-07T17:24:09.732Z,14.93
2022-10-07T17:26:37.421Z,14.83
2022-10-07T17:29:09.777Z,14.75
2022-10-07T17:31:39.021Z,14.72
2022-10-07T17:34:06.244Z,14.64
2022-10-07T17:36:33.222Z,14.59
2022-10-07T17:39:00.205Z,14.52
2022-10-07T17:41:28.891Z,14.48
2022-10-07T17:43:57.289Z,14.40
2022-10-07T17:46:25.968Z,14.36
2022-10-07T17:48:54.944Z,14.33
2022-10-07T17:51:24.043Z,14.29
2022-10-07T17:53:51.022Z,14.23
2022-10-07T17:56:17.929Z,14.18
2022-10-07T17:58:45.874Z,14.16
2022-10-07T18:01:19.450Z,14.12
2022-10-07T18:03:51.330Z,14.07
2022-10-07T18:06:17.683Z,14.01
2022-10-07T18:08:44.231Z,13.99
2022-10-07T18:11:10.743Z,13.95
2022-10-07T18:13:56.029Z,13.91
2022-10-07T18:16:22.755Z,13.89
2022-10-07T18:18:58.555Z,13.87
2022-10-07T18:21:25.152Z,13.86
2022-10-07T18:23:54.262Z,13.86
2022-10-07T18:26:20.625Z,13.87
2022-10-07T18:28:47.454Z,13.86
2022-10-07T18:31:16.769Z,13.85
2022-10-07T18:33:44.679Z,13.86
2022-10-07T18:36:16.751Z,13.86
2022-10-07T18:38:44.493Z,13.85
2022-10-07T18:41:13.798Z,13.82
2022-10-07T18:43:41.415Z,13.83
2022-10-07T18:46:14.119Z,13.82
2022-10-07T18:48:41.976Z,13.83
2022-10-07T18:51:10.279Z,13.83
2022-10-07T18:53:38.373Z,13.81
2022-10-07T18:56:07.401Z,13.80
2022-10-07T18:58:39.668Z,13.80
2022-10-07T19:01:08.146Z,13.77
2022-10-07T19:03:37.293Z,13.76
2022-10-07T19:06:09.592Z,13.72
2022-10-07T19:08:36.852Z,13.68
2022-10-07T19:11:05.308Z,13.63
2022-10-07T19:13:51.890Z,13.58
2022-10-07T19:16:23.786Z,13.53
2022-10-07T19:18:55.144Z,13.50
2022-10-07T19:21:23.009Z,13.45
2022-10-07T19:23:51.730Z,13.42
2022-10-07T19:26:21.560Z,13.40
2022-10-07T19:28:49.763Z,13.36
2022-10-07T19:31:25.740Z,13.32
2022-10-07T19:33:56.513Z,13.30
2022-10-07T19:36:23.321Z,13.28
2022-10-07T19:38:53.468Z,13.27
2022-10-07T19:41:22.936Z,13.23
2022-10-07T19:43:49.925Z,13.20
2022-10-07T19:46:18.128Z,13.17
2022-10-07T19:48:45.356Z,13.15
2022-10-07T19:51:14.518Z,13.13
2022-10-07T19:53:46.626Z,13.11
2022-10-07T19:56:25.292Z,13.08
2022-10-07T19:59:05.401Z,13.07
2022-10-07T20:01:34.901Z,13.04
2022-10-07T20:04:14.034Z,13.02
2022-10-07T20:06:41.557Z,12.99
2022-10-07T20:09:11.169Z,12.98
2022-10-07T20:11:37.691Z,12.97
2022-10-07T20:14:05.753Z,12.96
2022-10-07T20:16:34.022Z,12.92
2022-10-07T20:19:06.653Z,12.91
2022-10-07T20:21:35.948Z,12.89
2022-10-07T20:24:03.211Z,12.87
2022-10-07T20:26:35.390Z,12.86
2022-10-07T20:29:06.959Z,12.84
2022-10-07T20:31:35.579Z,12.85
2022-10-07T20:34:02.807Z,12.81
2022-10-07T20:36:32.246Z,12.79
2022-10-07T20:39:20.489Z,12.78
2022-10-07T20:42:05.792Z,12.77
2022-10-07T20:44:32.541Z,12.75
2022-10-07T20:46:58.985Z,12.73
2022-10-07T20:49:28.591Z,12.71
2022-10-07T20:51:57.213Z,12.71
2022-10-07T20:54:25.585Z,12.69
2022-10-07T20:56:52.969Z,12.65
2022-10-07T20:59:20.344Z,12.64
2022-10-07T21:01:46.966Z,12.62
2022-10-07T21:04:14.877Z,12.60
2022-10-07T21:06:42.210Z,12.59
2022-10-07T21:09:09.532Z,12.56
2022-10-07T21:11:36.397Z,12.55
2022-10-07T21:14:03.069Z,12.53
2022-10-07T21:16:30.842Z,12.52
2022-10-07T21:18:57.606Z,12.50
2022-10-07T21:21:24.805Z,12.49
2022-10-07T21:23:51.654Z,12.50
2022-10-07T21:26:18.830Z,12.49
2022-10-07T21:28:48.091Z,12.48
2022-10-07T21:31:17.456Z,12.44
2022-10-07T21:33:47.916Z,12.42
2022-10-07T21:36:17.133Z,12.40
2022-10-07T21:38:45.351Z,12.39
2022-10-07T21:41:20.776Z,12.38
2022-10-07T21:43:54.395Z,12.38
2022-10-07T21:46:23.065Z,12.36
2022-10-07T21:48:49.885Z,12.38
2022-10-07T21:51:16.880Z,12.37
2022-10-07T21:53:44.197Z,12.36
2022-10-07T21:56:12.164Z,12.37
2022-10-07T21:58:39.148Z,12.38
2022-10-07T22:01:07.466Z,12.41
2022-10-07T22:03:34.768Z,12.44
2022-10-07T22:06:06.458Z,12.48
2022-10-07T22:08:36.704Z,12.50
2022-10-07T22:11:15.120Z,12.53
2022-10-07T22:13:46.794Z,12.57
2022-10-07T22:16:16.030Z,12.60
2022-10-07T22:18:49.292Z,12.61
2022-10-07T22:21:22.697Z,12.63
2022-10-07T22:23:50.943Z,12.64
2022-10-07T22:26:18.841Z,12.68
2022-10-07T22:28:46.497Z,12.70
2022-10-07T22:31:14.882Z,12.71
2022-10-07T22:33:42.051Z,12.73
2022-10-07T22:36:10.877Z,12.74
2022-10-07T22:38:38.104Z,12.76
2022-10-07T22:41:10.616Z,12.78
2022-10-07T22:43:44.893Z,12.80
2022-10-07T22:46:26.800Z,12.84
2022-10-07T22:48:56.223Z,12.87
2022-10-07T22:51:24.306Z,12.88
2022-10-07T22:53:53.933Z,12.89
2022-10-07T22:56:22.210Z,12.90
2022-10-07T22:58:53.063Z,12.89
2022-10-07T23:01:20.232Z,12.90
2022-10-07T23:03:46.958Z,12.91
2022-10-07T23:06:15.932Z,12.92
2022-10-07T23:08:44.654Z,12.92
2022-10-07T23:11:16.058Z,12.94
2022-10-07T23:13:42.961Z,12.94
2022-10-07T23:16:12.092Z,12.95
2022-10-07T23:18:43.036Z,12.95
2022-10-07T23:21:18.866Z,12.95
2022-10-07T23:23:47.953Z,12.97
2022-10-07T23:26:19.029Z,12.99
2022-10-07T23:28:47.214Z,13.00
2022-10-07T23:31:14.669Z,13.04
2022-10-07T23:33:41.170Z,13.05
2022-10-07T23:36:10.432Z,13.05
2022-10-07T23:38:38.948Z,13.06
2022-10-07T23:41:06.524Z,13.07
2022-10-07T23:43:33.442Z,13.09
2022-10-07T23:46:01.151Z,13.10
2022-10-07T23:48:27.745Z,13.11
2022-10-07T23:50:57.532Z,13.13
2022-10-07T23:53:23.886Z,13.14
2022-10-07T23:55:52.215Z,13.16
2022-10-07T23:58:20.980Z,13.17
